Terminal Aerodrome Forecast
Issued by NWS

Current Version | Previous Version | Text Only | Print | Product List | Glossary Off
Versions: 1 2 3 4 5 6 7 8 9 10 11 12 13 14 15 16 17 18 19 20 21 22 23 24 25

000
FTUS41 KRLX 131400 AAA
TAFCKB
TAF AMD
KCKB 131440Z 1315/1412 27005KT 6SM BR BKN025 OVC035
     FM131600 27005KT P6SM BKN025 OVC035
     FM132000 29006KT P6SM SCT025 BKN035
     FM140100 VRB03KT P6SM SCT040
     FM140800 00000KT 6SM BR FEW250=

USA.gov is the U.S. government's official web portal to all federal, state and local government web resources and services.